Report METAR

 

LIBV - Gioia Del Colle, Italy
Distanza dalla stazione: SSE 15km
Dati ricevuti: 23/01/2020 16:55
Sereno
Sereno
 Vento da N
Vento: N 13 km/h
Temperatura: 9°C
Temperatura Vento: 7°C
P.to Rugiada: 6°C
Umidità: 82%
Barometro: 1026 hPa
Riassunto: Sereno
Visibilità: superiore a 10 km
2020/01/23 15:55 LIBV 231555Z 35007KT CAVOK 09/06 Q1026 RMK SKC VIS MIN 9999 WIND THR32 36008KT WIND THR14 35008KT BLU
LIBD - Bari/Palese Macc, Italy
Distanza dalla stazione: NNO 26km
Dati ricevuti: 23/01/2020 16:50
Sereno
Sereno
 Vento da ONO
Vento: ONO 6 km/h
Temperatura: 11°C
P.to Rugiada: 5°C
Umidità: 67%
Barometro: 1028 hPa
Riassunto: Sereno
Visibilità: superiore a 10 km
2020/01/23 15:50 LIBD 231550Z 29003KT CAVOK 11/05 Q1028
 
LIBH - Marina Di Ginosa, Italy
Distanza dalla stazione: S 53km
Dati ricevuti: 23/01/2020 16:55
Sereno
Sereno
 Vento da NNE
Vento: NNE 19 km/h
Temperatura: 13°C
P.to Rugiada: 4°C
Umidità: 55%
Barometro: 1027 hPa
Riassunto: Sereno
Visibilità: superiore a 10 km
2020/01/23 15:55 LIBH 231555Z 03010KT CAVOK 13/04 Q1027 RMK SKC QUK 1 QUL 0 VIS MAR 30 KM VIS MIN 9999
LIBG - Grottaglie(Civ/A, Italy
Distanza dalla stazione: SE 61km
Dati ricevuti: 23/01/2020 16:50
Sereno
Sereno
 Vento da N
Vento: N 17 km/h
Temperatura: 12°C
P.to Rugiada: 9°C
Umidità: 82%
Barometro: 1027 hPa
Riassunto: Sereno
Visibilità: superiore a 10 km
2020/01/23 15:50 LIBG 231550Z 36009KT CAVOK 12/09 Q1027
 
LIBR - Brindisi/Casale, Italy
Distanza dalla stazione: ESE 96km
Dati ricevuti: 23/01/2020 16:50
Sereno
Sereno
 Vento da NNO
Vento: NNO 17 km/h
Temperatura: 13°C
P.to Rugiada: 6°C
Umidità: 63%
Barometro: 1027 hPa
Riassunto: Sereno
Visibilità: superiore a 10 km
2020/01/23 15:50 LIBR 231550Z 34009KT CAVOK 13/06 Q1027
LIBA - Amendola (it-Afb, Italy
Distanza dalla stazione: NO 118km
Dati ricevuti: 23/01/2020 16:55
Parz. nuvoloso
Parz. nuvoloso
 Vento da Variabile
Vento: Variabile 6 km/h
Temperatura: 11°C
P.to Rugiada: 7°C
Umidità: 77%
Barometro: 1028 hPa
Nuvole: Parz. nuvoloso
Visibilità: 8 km
2020/01/23 15:55 LIBA 231555Z VRB03KT 8000 NSC 11/07 Q1028 RMK SKC VIS MIN 8000 WIND THR11 3204KT WIND THR29 /////KT BLU
 
LIBF - Foggia/Gino Lisa, Italy
Distanza dalla stazione: ONO 126km
Dati ricevuti: 23/01/2020 15:50
DATI Obsoleti
Sereno
Sereno
 Vento da NO
Vento: NO 19 km/h
Temperatura: 12°C
P.to Rugiada: 5°C
Umidità: 63%
Barometro: 1028 hPa
Riassunto: Sereno
Visibilità: superiore a 10 km
2020/01/23 14:50 LIBF 231450Z 32010KT CAVOK 12/05 Q1028
LIBN - Lecce (it-Afb), Italy
Distanza dalla stazione: SE 132km
Dati ricevuti: 23/01/2020 16:55
Sereno
Sereno
 Vento da N
Vento: N 13 km/h
Temperatura: 12°C
P.to Rugiada: 8°C
Umidità: 77%
Barometro: 1027 hPa
Riassunto: Sereno
Visibilità: superiore a 10 km
2020/01/23 15:55 LIBN 231555Z 35007KT CAVOK 12/08 Q1027 RMK SKC VIS MIN 9999 WIND THR14 35009KT WIND THR32 36009KT BLU